Time;durP1;ratioP1;P1;durP2;ratioP2;P2;SDS_P1;SDS_P2;PMS_P1;PMS_P2;Temp;Humidity;BMP_temperature;BMP_pressure;BME280_temperature;BME280_humidity;BME280_pressure;Samples;Min_cycle;Max_cycle;Signal;HPM_P1;HPM_P2
2022/07/19 00:01:45;;;;;;;5.30;3.70;;;;;;;21.39;48.16;93401.69;2067437;69;20187;-68
2022/07/19 00:04:11;;;;;;;11.52;4.15;;;;;;;21.36;48.38;93400.91;2071282;69;20136;-68
2022/07/19 00:06:37;;;;;;;12.27;4.30;;;;;;;21.39;47.97;93395.94;2070878;69;20149;-68
2022/07/19 00:09:04;;;;;;;10.20;4.60;;;;;;;21.27;48.03;93387.69;2071096;69;20179;-69
2022/07/19 00:11:30;;;;;;;13.13;4.70;;;;;;;21.31;46.65;93400.03;2067494;69;20255;-67
2022/07/19 00:13:55;;;;;;;10.93;4.70;;;;;;;21.22;47.52;93397.56;2071145;69;20148;-67
2022/07/19 00:16:21;;;;;;;11.13;5.10;;;;;;;21.30;48.03;93394.94;2071015;69;20226;-67
2022/07/19 00:18:47;;;;;;;12.65;4.18;;;;;;;21.25;47.88;93396.94;2071163;69;20190;-67
2022/07/19 00:21:13;;;;;;;7.65;4.07;;;;;;;21.26;47.40;93403.41;2071194;69;20167;-68
2022/07/19 00:23:39;;;;;;;9.38;4.10;;;;;;;21.01;48.39;93396.16;2067836;69;20604;-67
2022/07/19 00:26:05;;;;;;;7.45;3.90;;;;;;;21.14;47.84;93398.00;2071207;69;20155;-69
2022/07/19 00:28:31;;;;;;;7.65;4.30;;;;;;;21.11;47.92;93404.34;2071391;69;20195;-71
2022/07/19 00:30:57;;;;;;;5.78;4.18;;;;;;;20.96;48.84;93401.00;2071382;69;20147;-69
2022/07/19 00:33:22;;;;;;;5.85;4.28;;;;;;;20.98;47.96;93401.09;2071151;69;20144;-68
2022/07/19 00:35:48;;;;;;;7.00;4.30;;;;;;;20.92;48.34;93405.88;2070890;69;20168;-67
2022/07/19 00:38:14;;;;;;;7.20;4.00;;;;;;;20.92;48.99;93409.44;2070709;69;20217;-65
2022/07/19 00:40:44;;;;;;;6.22;4.05;;;;;;;20.74;49.19;93409.56;2071338;69;20195;-68
2022/07/19 00:43:11;;;;;;;8.43;4.07;;;;;;;20.89;48.07;93405.06;2071345;69;20275;-67
2022/07/19 00:45:37;;;;;;;6.18;3.90;;;;;;;20.94;48.26;93405.94;2071448;69;20140;-68
2022/07/19 00:48:05;;;;;;;6.95;4.10;;;;;;;20.81;49.13;93399.81;2071235;69;20639;-67
2022/07/19 00:50:34;;;;;;;6.00;3.90;;;;;;;20.90;48.63;93406.53;2071060;69;20147;-67
2022/07/19 00:53:04;;;;;;;7.68;4.25;;;;;;;20.83;48.64;93407.72;2068678;69;20164;-68
2022/07/19 00:55:32;;;;;;;8.88;4.10;;;;;;;20.77;48.82;93405.38;2071199;69;20167;-68
2022/07/19 00:57:59;;;;;;;8.15;4.18;;;;;;;20.87;48.35;93412.84;2071558;69;20136;-67
2022/07/19 01:00:28;;;;;;;7.68;4.80;;;;;;;20.72;49.04;93403.78;2071173;69;20597;-68
2022/07/19 01:02:54;;;;;;;5.68;4.28;;;;;;;20.54;49.91;93408.88;2071079;69;20172;-67
2022/07/19 01:05:20;;;;;;;7.90;4.70;;;;;;;20.34;50.35;93403.13;2070906;69;20144;-73
2022/07/19 01:07:46;;;;;;;16.42;8.43;;;;;;;20.62;49.00;93411.25;2071119;69;20551;-67
2022/07/19 01:10:14;;;;;;;15.48;7.60;;;;;;;20.50;49.57;93408.72;2071004;69;20717;-67
2022/07/19 01:12:41;;;;;;;10.75;6.30;;;;;;;20.43;49.88;93401.28;2070551;69;20132;-67
2022/07/19 01:15:32;;;;;;;10.10;6.32;;;;;;;20.38;50.25;93403.28;2071078;69;20250;-68
2022/07/19 01:17:58;;;;;;;7.60;5.05;;;;;;;20.43;49.71;93398.44;2070446;69;20164;-68
2022/07/19 01:20:25;;;;;;;7.60;4.65;;;;;;;20.47;49.68;93405.06;2071240;69;20154;-67
2022/07/19 01:22:51;;;;;;;6.03;4.38;;;;;;;20.40;49.68;93406.22;2071177;69;20180;-69
2022/07/19 01:25:16;;;;;;;7.15;4.32;;;;;;;20.28;50.47;93408.63;2070978;69;20151;-67
2022/07/19 01:27:50;;;;;;;8.30;5.40;;;;;;;20.20;49.48;93403.34;2070747;69;20147;-69
2022/07/19 01:30:18;;;;;;;7.18;4.70;;;;;;;20.17;51.16;93401.81;2071116;69;20222;-69
2022/07/19 01:32:45;;;;;;;13.55;4.93;;;;;;;20.24;50.15;93403.50;2070979;69;20144;-68
2022/07/19 01:35:11;;;;;;;11.05;5.20;;;;;;;19.84;51.33;93413.44;2070996;69;20247;-67
2022/07/19 01:37:38;;;;;;;7.97;5.13;;;;;;;20.06;49.59;93406.44;2067533;69;20152;-66
2022/07/19 01:40:05;;;;;;;7.05;5.43;;;;;;;20.06;50.65;93405.69;2070909;69;20179;-68
2022/07/19 01:42:31;;;;;;;12.25;5.70;;;;;;;19.99;50.68;93415.44;2067768;69;20210;-67
2022/07/19 01:44:57;;;;;;;11.20;4.88;;;;;;;20.09;50.53;93409.38;2071225;69;20136;-67
2022/07/19 01:47:23;;;;;;;9.43;5.20;;;;;;;20.10;50.47;93408.69;2067592;69;20163;-69
2022/07/19 01:49:49;;;;;;;10.18;5.15;;;;;;;19.86;51.67;93410.66;2071079;69;20256;-68
2022/07/19 01:52:15;;;;;;;9.55;5.50;;;;;;;19.89;50.89;93404.38;2070677;69;20231;-67
2022/07/19 01:54:40;;;;;;;9.73;5.70;;;;;;;19.94;51.27;93411.72;2071250;69;20144;-67
2022/07/19 01:57:06;;;;;;;8.50;5.32;;;;;;;19.91;51.00;93406.56;2071108;69;20161;-67
2022/07/19 01:59:32;;;;;;;10.68;5.28;;;;;;;19.92;50.48;93408.75;2070465;69;20521;-67
2022/07/19 02:01:58;;;;;;;8.93;5.68;;;;;;;19.75;51.64;93407.44;2067639;69;20231;-68
2022/07/19 02:04:23;;;;;;;7.47;5.13;;;;;;;20.00;50.38;93411.94;2070918;69;20554;-67
2022/07/19 02:06:49;;;;;;;6.93;5.38;;;;;;;19.81;51.27;93409.78;2070941;69;20227;-67
2022/07/19 02:09:14;;;;;;;7.93;4.82;;;;;;;19.80;51.15;93406.19;2070972;69;20144;-68
2022/07/19 02:11:40;;;;;;;8.70;5.05;;;;;;;19.83;51.52;93407.00;2070994;69;20282;-68
2022/07/19 02:14:08;;;;;;;8.18;5.20;;;;;;;19.72;51.46;93411.59;2070908;69;20214;-67
2022/07/19 02:16:36;;;;;;;9.23;5.00;;;;;;;19.66;51.76;93402.06;2067557;69;20152;-68
2022/07/19 02:19:03;;;;;;;8.63;5.28;;;;;;;19.60;52.24;93402.56;2071132;69;20179;-67
2022/07/19 02:21:29;;;;;;;6.80;4.95;;;;;;;19.51;52.58;93398.63;2070901;69;20136;-68
2022/07/19 02:23:55;;;;;;;8.52;5.32;;;;;;;19.39;52.50;93400.28;2071190;69;20606;-67
2022/07/19 02:26:21;;;;;;;8.82;4.95;;;;;;;19.42;53.18;93396.84;2071107;69;20232;-66
2022/07/19 02:28:47;;;;;;;7.85;4.60;;;;;;;19.70;50.28;93402.19;2071163;69;20504;-67
2022/07/19 02:31:13;;;;;;;10.45;5.18;;;;;;;19.50;52.13;93399.28;2070626;69;20167;-68
2022/07/19 02:33:39;;;;;;;9.20;4.85;;;;;;;19.48;51.61;93399.22;2070958;69;20652;-67
2022/07/19 02:36:04;;;;;;;8.27;5.43;;;;;;;19.47;52.37;93398.50;2070585;69;20156;-68
2022/07/19 02:38:30;;;;;;;10.95;5.30;;;;;;;19.36;53.11;93393.03;2070985;69;20172;-68
2022/07/19 02:40:58;;;;;;;10.10;5.32;;;;;;;19.46;52.26;93401.97;2071202;69;20154;-67
2022/07/19 02:43:23;;;;;;;8.45;4.70;;;;;;;19.32;52.02;93404.28;2070824;69;20262;-68
2022/07/19 02:45:49;;;;;;;7.57;5.03;;;;;;;19.31;52.67;93397.84;2070945;69;20141;-68
2022/07/19 02:48:15;;;;;;;8.52;5.20;;;;;;;19.22;53.29;93393.94;2067816;69;20245;-67
2022/07/19 02:50:41;;;;;;;7.00;4.65;;;;;;;19.18;53.23;93398.75;2071196;69;20160;-68
2022/07/19 02:53:07;;;;;;;7.78;4.90;;;;;;;19.37;52.17;93397.34;2071115;69;20133;-67
2022/07/19 02:55:32;;;;;;;8.43;4.85;;;;;;;19.39;52.05;93397.44;2071351;69;20251;-73
2022/07/19 02:57:58;;;;;;;6.45;5.05;;;;;;;19.19;53.41;93395.22;2071593;69;20605;-67
2022/07/19 03:00:24;;;;;;;7.03;5.05;;;;;;;19.15;53.16;93389.38;2071357;69;20175;-67
2022/07/19 03:02:50;;;;;;;6.55;4.72;;;;;;;19.32;51.97;93395.72;2070439;69;21463;-66
2022/07/19 03:05:15;;;;;;;9.40;4.80;;;;;;;19.24;53.23;93387.56;2070817;69;20184;-67
2022/07/19 03:07:41;;;;;;;7.75;4.70;;;;;;;19.11;53.50;93397.78;2071409;69;20175;-68
2022/07/19 03:10:08;;;;;;;8.48;4.88;;;;;;;19.14;53.05;93392.88;2072125;69;20179;-67
2022/07/19 03:12:34;;;;;;;8.13;5.32;;;;;;;18.91;53.83;93394.81;2071999;69;20219;-67
2022/07/19 03:15:00;;;;;;;8.30;4.80;;;;;;;19.13;53.10;93395.00;2073930;69;20282;-68
2022/07/19 03:17:25;;;;;;;8.38;5.07;;;;;;;18.98;53.53;93404.38;2071537;69;20251;-72
2022/07/19 03:19:51;;;;;;;6.40;4.95;;;;;;;19.07;52.93;93396.88;2068321;69;20193;-68
2022/07/19 03:22:16;;;;;;;9.65;4.95;;;;;;;18.97;53.02;93392.22;2071772;69;20587;-72
2022/07/19 03:24:42;;;;;;;9.13;5.10;;;;;;;18.89;52.27;93388.31;2071808;69;20132;-68
2022/07/19 03:27:08;;;;;;;8.55;5.40;;;;;;;18.61;53.67;93399.97;2071827;69;20144;-74
2022/07/19 03:29:33;;;;;;;10.25;5.22;;;;;;;18.86;53.36;93398.88;2071744;69;20288;-69
2022/07/19 03:31:59;;;;;;;7.45;5.00;;;;;;;18.86;53.29;93398.16;2067884;69;20553;-68
2022/07/19 03:34:25;;;;;;;9.13;5.10;;;;;;;18.91;53.22;93386.25;2068376;69;20675;-69
2022/07/19 03:36:51;;;;;;;8.95;5.22;;;;;;;18.86;53.61;93396.03;2070641;69;20675;-74
2022/07/19 03:39:17;;;;;;;9.55;5.50;;;;;;;18.79;53.20;93395.06;2071791;69;20152;-69
2022/07/19 03:41:42;;;;;;;7.47;5.15;;;;;;;18.80;53.50;93390.09;2068328;69;20218;-68
2022/07/19 03:44:08;;;;;;;7.85;5.03;;;;;;;18.83;53.69;93383.09;2071665;69;20152;-71
2022/07/19 03:46:34;;;;;;;7.65;5.28;;;;;;;18.84;53.74;93376.00;2071803;69;20534;-72
2022/07/19 03:48:59;;;;;;;7.68;5.30;;;;;;;18.39;54.99;93385.50;2071728;69;20534;-70
2022/07/19 03:51:25;;;;;;;8.48;5.53;;;;;;;18.73;53.76;93386.22;2071552;69;20698;-68
2022/07/19 03:53:51;;;;;;;8.20;5.10;;;;;;;18.80;53.67;93392.94;2071643;69;20239;-68
2022/07/19 03:56:20;;;;;;;13.00;5.40;;;;;;;18.66;54.52;93393.06;2071642;69;20129;-68
2022/07/19 03:58:48;;;;;;;10.40;5.78;;;;;;;18.73;53.40;93394.78;2071565;69;20145;-68
2022/07/19 04:01:15;;;;;;;8.82;5.75;;;;;;;18.69;54.00;93388.19;2071387;69;20640;-70
2022/07/19 04:03:41;;;;;;;8.15;5.40;;;;;;;18.71;54.19;93391.88;2071466;69;20156;-69
2022/07/19 04:06:09;;;;;;;25.05;17.77;;;;;;;18.57;55.05;93391.25;2071537;69;20230;-69
2022/07/19 04:08:35;;;;;;;38.88;19.27;;;;;;;18.56;54.65;93386.94;2071389;69;20152;-69
2022/07/19 04:11:01;;;;;;;8.93;5.53;;;;;;;18.56;54.67;93380.50;2071606;69;20148;-68
2022/07/19 04:13:27;;;;;;;7.63;5.40;;;;;;;18.57;54.63;93399.06;2070968;69;20264;-69
2022/07/19 04:15:53;;;;;;;7.88;5.25;;;;;;;18.54;54.27;93396.13;2071467;69;20154;-70
2022/07/19 04:18:19;;;;;;;11.60;5.20;;;;;;;18.46;55.51;93395.03;2071684;69;20148;-72
2022/07/19 04:20:44;;;;;;;9.57;5.43;;;;;;;18.58;54.22;93392.72;2071683;69;20140;-70
2022/07/19 04:23:10;;;;;;;7.85;5.47;;;;;;;18.52;54.87;93393.19;2071601;69;20154;-69
2022/07/19 04:25:36;;;;;;;8.00;5.90;;;;;;;18.49;54.98;93390.91;2071540;69;20139;-69
2022/07/19 04:28:02;;;;;;;9.75;5.57;;;;;;;18.59;54.24;93402.72;2071589;69;20171;-69
2022/07/19 04:30:28;;;;;;;10.10;5.88;;;;;;;18.60;54.42;93397.75;2071652;69;20194;-69
2022/07/19 04:32:54;;;;;;;8.15;6.22;;;;;;;18.49;55.28;93397.34;2071726;69;20241;-68
2022/07/19 04:35:20;;;;;;;10.15;6.22;;;;;;;18.60;54.80;93400.59;2071668;69;20239;-70
2022/07/19 04:37:45;;;;;;;11.10;6.35;;;;;;;18.52;55.74;93392.47;2071496;69;20167;-73
2022/07/19 04:40:11;;;;;;;10.88;6.07;;;;;;;18.39;56.11;93399.03;2071752;69;20492;-68
2022/07/19 04:42:37;;;;;;;8.98;5.43;;;;;;;18.50;55.47;93398.06;2071803;69;20144;-69
2022/07/19 04:45:04;;;;;;;11.43;5.40;;;;;;;18.59;54.98;93399.16;2071891;69;20148;-70
2022/07/19 04:47:30;;;;;;;8.52;5.30;;;;;;;18.64;53.56;93404.38;2071780;69;20616;-68
2022/07/19 04:49:55;;;;;;;11.38;5.63;;;;;;;18.32;55.49;93400.13;2068402;69;20223;-68
2022/07/19 04:52:21;;;;;;;9.77;5.45;;;;;;;18.45;55.26;93408.56;2068355;69;20156;-68
2022/07/19 04:54:47;;;;;;;10.02;5.43;;;;;;;18.47;55.39;93402.22;2071778;69;20654;-68
2022/07/19 04:57:13;;;;;;;7.38;5.65;;;;;;;18.27;55.46;93404.94;2071708;69;20128;-69
2022/07/19 04:59:39;;;;;;;12.05;6.28;;;;;;;18.31;55.89;93410.81;2071734;69;20171;-68
2022/07/19 05:02:05;;;;;;;14.90;5.90;;;;;;;18.47;55.53;93410.78;2071706;69;20152;-68
2022/07/19 05:04:31;;;;;;;12.90;6.18;;;;;;;18.39;55.63;93401.88;2071715;69;20156;-69
2022/07/19 05:06:57;;;;;;;12.30;6.32;;;;;;;18.45;55.56;93410.69;2071641;69;20152;-69
2022/07/19 05:09:27;;;;;;;12.10;6.50;;;;;;;18.28;56.28;93398.59;2071726;69;20665;-71
2022/07/19 05:11:53;;;;;;;11.98;5.93;;;;;;;18.36;56.67;93398.19;2071762;69;20155;-69
2022/07/19 05:14:20;;;;;;;9.35;5.95;;;;;;;18.22;56.76;93404.00;2071632;69;20682;-69
2022/07/19 05:16:46;;;;;;;10.57;5.93;;;;;;;18.57;54.61;93404.78;2071664;69;20144;-70
2022/07/19 05:19:12;;;;;;;12.38;6.15;;;;;;;18.52;54.96;93395.31;2071737;69;20208;-71
2022/07/19 05:21:38;;;;;;;11.05;5.95;;;;;;;18.44;56.26;93395.69;2071681;69;20140;-68
2022/07/19 05:24:04;;;;;;;9.05;5.95;;;;;;;18.53;55.51;93403.22;2071724;69;20175;-68
2022/07/19 05:26:30;;;;;;;9.43;5.72;;;;;;;18.37;57.57;93396.84;2071932;69;20580;-68
2022/07/19 05:28:56;;;;;;;10.68;5.68;;;;;;;18.43;57.24;93405.63;2071794;69;20176;-71
2022/07/19 05:31:21;;;;;;;9.13;5.90;;;;;;;18.49;56.38;93396.59;2071669;69;20236;-72
2022/07/19 05:33:47;;;;;;;7.38;5.82;;;;;;;18.50;56.18;93393.09;2071653;69;20148;-70
2022/07/19 05:36:13;;;;;;;9.00;5.78;;;;;;;18.53;56.64;93396.78;2071783;69;20140;-69
2022/07/19 05:38:38;;;;;;;12.30;5.93;;;;;;;18.59;55.73;93399.88;2071546;69;20154;-72
2022/07/19 05:41:05;;;;;;;10.65;6.18;;;;;;;18.54;55.88;93401.09;2071857;69;20179;-69
2022/07/19 05:43:31;;;;;;;12.07;5.72;;;;;;;18.45;56.56;93397.16;2071735;69;20218;-70
2022/07/19 05:45:57;;;;;;;13.98;6.60;;;;;;;18.36;56.70;93395.34;2071640;69;20148;-69
2022/07/19 05:48:22;;;;;;;13.15;6.10;;;;;;;18.50;55.83;93393.09;2071698;69;20210;-68
2022/07/19 05:50:48;;;;;;;10.48;6.47;;;;;;;18.27;57.75;93397.09;2071688;69;20156;-68
2022/07/19 05:53:17;;;;;;;9.40;6.60;;;;;;;18.49;56.96;93390.91;2071488;69;20179;-69
2022/07/19 05:55:43;;;;;;;10.05;6.35;;;;;;;18.60;54.51;93380.66;2071732;69;20144;-69
2022/07/19 05:58:09;;;;;;;11.38;6.55;;;;;;;18.47;56.19;93388.72;2071769;69;20245;-68
2022/07/19 06:00:34;;;;;;;10.13;6.32;;;;;;;18.64;54.39;93395.81;2071754;69;20564;-69
2022/07/19 06:03:00;;;;;;;9.45;6.50;;;;;;;18.55;56.09;93385.44;2071684;69;20577;-69
2022/07/19 06:05:26;;;;;;;11.15;6.35;;;;;;;18.59;55.25;93376.34;2071581;69;20148;-69
2022/07/19 06:07:51;;;;;;;10.57;6.70;;;;;;;18.51;55.70;93383.19;2071489;69;20148;-69
2022/07/19 06:10:17;;;;;;;8.85;6.18;;;;;;;18.65;55.49;93385.16;2071537;69;20262;-71
2022/07/19 06:12:42;;;;;;;11.25;6.30;;;;;;;18.65;55.63;93373.75;2071633;69;20175;-70
2022/07/19 06:15:09;;;;;;;8.32;5.82;;;;;;;18.63;56.88;93379.34;2071567;69;20145;-70
2022/07/19 06:17:34;;;;;;;11.50;5.78;;;;;;;18.71;56.11;93380.47;2071793;69;20179;-71
2022/07/19 06:20:00;;;;;;;11.00;6.18;;;;;;;18.89;55.07;93379.75;2071566;69;20128;-72
2022/07/19 06:22:29;;;;;;;9.20;5.57;;;;;;;18.89;55.69;93374.78;2071475;69;20141;-69
2022/07/19 06:24:55;;;;;;;11.13;5.82;;;;;;;18.90;55.56;93379.09;2071546;69;20237;-70
2022/07/19 06:27:21;;;;;;;6.88;5.35;;;;;;;19.06;55.19;93381.88;2071783;69;20583;-70
2022/07/19 06:29:46;;;;;;;6.60;5.30;;;;;;;19.11;54.21;93377.78;2071989;69;20132;-70
2022/07/19 06:32:12;;;;;;;10.20;5.30;;;;;;;19.24;54.62;93368.34;2072045;69;20141;-68
2022/07/19 06:34:38;;;;;;;8.48;5.28;;;;;;;19.30;55.22;93367.81;2072045;69;20148;-70
2022/07/19 06:37:03;;;;;;;9.40;5.28;;;;;;;19.39;54.73;93368.88;2071927;69;20172;-72
2022/07/19 06:39:29;;;;;;;8.40;5.40;;;;;;;19.56;54.47;93356.66;2072045;69;20235;-74
2022/07/19 06:41:54;;;;;;;7.68;5.13;;;;;;;19.68;53.22;93360.03;2072065;69;20140;-73
2022/07/19 06:44:20;;;;;;;6.88;5.28;;;;;;;19.78;52.65;93365.38;2072143;69;20160;-74
2022/07/19 06:46:46;;;;;;;8.40;5.40;;;;;;;19.91;51.67;93358.00;2072037;69;20143;-69
2022/07/19 06:49:11;;;;;;;8.05;5.30;;;;;;;20.05;51.79;93347.81;2068670;69;20816;-72
2022/07/19 06:51:37;;;;;;;7.93;5.32;;;;;;;20.15;51.57;93349.56;2071805;69;20151;-71
2022/07/19 06:54:03;;;;;;;6.38;5.32;;;;;;;20.23;52.18;93349.84;2072211;69;20252;-70
2022/07/19 06:56:28;;;;;;;9.25;5.70;;;;;;;20.32;50.90;93337.31;2072110;69;20554;-71
2022/07/19 06:58:54;;;;;;;9.40;5.40;;;;;;;20.36;52.48;93337.44;2072103;69;20637;-70
2022/07/19 07:01:19;;;;;;;6.97;5.10;;;;;;;20.46;50.60;93337.78;2072006;69;20611;-70
2022/07/19 07:03:45;;;;;;;7.60;5.55;;;;;;;20.54;52.62;93323.81;2072066;69;20614;-70
2022/07/19 07:06:11;;;;;;;6.75;5.03;;;;;;;20.67;49.03;93322.09;2072112;69;20610;-69
2022/07/19 07:08:36;;;;;;;8.88;5.60;;;;;;;20.74;49.97;93320.16;2071840;69;20168;-72
2022/07/19 07:11:02;;;;;;;5.57;4.97;;;;;;;20.87;51.23;93321.28;2071952;69;20584;-72
2022/07/19 07:13:28;;;;;;;6.38;5.30;;;;;;;20.96;49.26;93326.59;2072097;69;20144;-72
2022/07/19 07:15:53;;;;;;;9.05;5.70;;;;;;;21.05;50.69;93321.88;2068558;69;20148;-71
2022/07/19 07:18:19;;;;;;;9.50;5.57;;;;;;;21.14;50.55;93317.84;2071959;69;20144;-71
2022/07/19 07:20:45;;;;;;;7.40;5.68;;;;;;;21.21;51.38;93308.06;2071948;69;20147;-69
2022/07/19 07:23:10;;;;;;;8.45;5.50;;;;;;;21.31;51.59;93314.13;2071789;69;20176;-71
2022/07/19 07:25:36;;;;;;;10.98;5.80;;;;;;;21.38;52.17;93311.44;2072040;69;20136;-69
2022/07/19 07:28:02;;;;;;;6.90;5.15;;;;;;;21.46;50.60;93306.69;2071965;69;20241;-68
2022/07/19 07:30:28;;;;;;;5.43;4.88;;;;;;;21.50;51.09;93301.09;2071907;69;20239;-68
2022/07/19 07:32:54;;;;;;;5.93;4.82;;;;;;;21.62;50.01;93302.84;2071941;69;20623;-69
2022/07/19 07:35:19;;;;;;;7.75;5.35;;;;;;;21.65;49.79;93292.91;2072014;69;20141;-69
2022/07/19 07:37:45;;;;;;;9.10;5.47;;;;;;;21.84;48.60;93286.28;2071836;69;20239;-71
2022/07/19 07:40:11;;;;;;;9.18;5.57;;;;;;;21.94;47.93;93283.69;2071650;69;20152;-69
2022/07/19 07:42:37;;;;;;;9.20;5.50;;;;;;;22.02;47.64;93286.06;2071858;69;20168;-70
2022/07/19 07:45:03;;;;;;;7.18;5.18;;;;;;;22.15;49.31;93278.56;2071858;69;20247;-73
2022/07/19 07:47:29;;;;;;;5.70;4.95;;;;;;;22.20;45.28;93283.00;2071914;69;20197;-70
2022/07/19 07:49:54;;;;;;;7.35;5.00;;;;;;;22.28;47.08;93275.34;2071871;69;20237;-69
2022/07/19 07:52:20;;;;;;;11.77;5.28;;;;;;;22.51;49.22;93275.91;2071726;69;20148;-70
2022/07/19 07:54:47;;;;;;;7.65;5.72;;;;;;;22.66;47.61;93266.25;2071898;69;20160;-70
2022/07/19 07:57:12;;;;;;;6.20;5.60;;;;;;;22.90;45.31;93260.41;2071877;69;20147;-69
2022/07/19 07:59:38;;;;;;;9.23;5.68;;;;;;;22.99;46.04;93264.19;2071853;69;20140;-69
2022/07/19 08:02:04;;;;;;;9.07;5.38;;;;;;;23.29;44.13;93255.53;2071822;69;20267;-70
2022/07/19 08:04:29;;;;;;;6.47;5.70;;;;;;;23.50;45.24;93254.59;2071830;69;20172;-69
2022/07/19 08:06:56;;;;;;;6.90;5.40;;;;;;;24.01;42.44;93249.16;2071702;69;20148;-69
2022/07/19 08:09:21;;;;;;;5.65;5.05;;;;;;;24.20;42.70;93250.25;2071956;69;20217;-70
2022/07/19 08:11:47;;;;;;;10.35;5.15;;;;;;;24.78;40.62;93255.56;2071900;69;20164;-70
2022/07/19 08:14:13;;;;;;;7.22;4.97;;;;;;;25.09;42.35;93251.06;2071773;69;20151;-69
2022/07/19 08:16:38;;;;;;;5.95;4.78;;;;;;;25.31;41.93;93239.88;2071922;69;20627;-75
2022/07/19 08:19:04;;;;;;;5.55;4.93;;;;;;;25.58;41.45;93240.97;2071951;69;20164;-76
2022/07/19 08:21:30;;;;;;;8.45;5.35;;;;;;;27.01;40.81;93238.88;2071837;69;20140;-72
2022/07/19 08:23:55;;;;;;;6.00;5.10;;;;;;;26.58;39.10;93227.72;2071757;69;20630;-69
2022/07/19 08:26:21;;;;;;;7.45;4.82;;;;;;;26.52;39.26;93232.69;2072066;69;20493;-71
2022/07/19 08:28:47;;;;;;;12.95;4.50;;;;;;;27.06;36.35;93231.72;2071824;69;20531;-69
2022/07/19 08:31:14;;;;;;;6.90;4.53;;;;;;;27.46;36.84;93222.59;2071762;69;20136;-69
2022/07/19 08:33:41;;;;;;;4.88;4.15;;;;;;;27.62;36.90;93227.75;2071772;69;20181;-69
2022/07/19 08:36:09;;;;;;;6.28;4.30;;;;;;;27.61;36.67;93224.13;2071766;69;20179;-70
2022/07/19 08:38:35;;;;;;;4.93;4.00;;;;;;;28.14;36.80;93225.84;2071617;69;20171;-69
2022/07/19 08:41:02;;;;;;;4.65;3.88;;;;;;;28.24;32.98;93225.88;2071783;69;20145;-69
2022/07/19 08:43:28;;;;;;;6.53;3.97;;;;;;;28.64;33.70;93225.25;2071857;69;20213;-69
2022/07/19 08:45:54;;;;;;;6.70;3.80;;;;;;;28.91;34.47;93226.00;2071751;69;20159;-71
2022/07/19 08:48:21;;;;;;;6.22;4.15;;;;;;;29.27;32.22;93216.56;2071730;69;20149;-68
2022/07/19 08:50:47;;;;;;;4.78;3.78;;;;;;;29.23;32.63;93205.00;2071577;69;20735;-74
2022/07/19 08:53:15;;;;;;;4.85;4.00;;;;;;;29.84;33.01;93212.84;2071640;69;20144;-76
2022/07/19 08:55:41;;;;;;;5.80;3.90;;;;;;;29.61;32.29;93207.09;2071662;69;20152;-73
2022/07/19 08:58:06;;;;;;;7.78;3.70;;;;;;;30.23;30.32;93204.69;2071755;69;20144;-70
2022/07/19 09:00:33;;;;;;;4.30;3.90;;;;;;;30.15;30.83;93204.00;2068430;69;20213;-69
2022/07/19 09:03:02;;;;;;;4.55;4.15;;;;;;;29.94;33.17;93212.06;2071768;69;20614;-69
2022/07/19 09:05:29;;;;;;;5.00;4.15;;;;;;;30.30;32.23;93203.22;2071717;69;20172;-71
2022/07/19 09:08:11;;;;;;;7.85;4.40;;;;;;;30.98;32.03;93202.78;2068318;69;20166;-69
2022/07/19 09:10:43;;;;;;;6.28;4.25;;;;;;;30.00;30.93;93206.22;2068363;69;20156;-70
2022/07/19 09:13:12;;;;;;;5.63;4.38;;;;;;;30.05;31.39;93190.25;2068426;69;20229;-70
2022/07/19 09:15:44;;;;;;;4.43;3.80;;;;;;;30.66;31.31;93200.81;2071703;69;20167;-70
2022/07/19 09:18:15;;;;;;;7.35;4.22;;;;;;;29.77;31.53;93191.09;2071846;69;20185;-70
2022/07/19 09:20:43;;;;;;;10.05;4.38;;;;;;;30.59;30.93;93191.41;2071874;69;20144;-70
2022/07/19 09:23:09;;;;;;;4.57;4.10;;;;;;;31.13;31.09;93183.75;2071596;69;20203;-70
2022/07/19 09:25:43;;;;;;;7.05;3.97;;;;;;;31.50;30.54;93177.59;2071707;69;20172;-70
2022/07/19 09:28:09;;;;;;;7.75;4.45;;;;;;;31.46;30.32;93184.19;2071743;69;20213;-70
2022/07/19 09:30:44;;;;;;;4.68;4.03;;;;;;;31.23;30.48;93182.94;2071848;69;20616;-69
2022/07/19 09:33:28;;;;;;;5.35;4.07;;;;;;;31.65;29.78;93181.81;2071822;69;20256;-71
2022/07/19 09:35:58;;;;;;;6.88;3.88;;;;;;;32.21;30.75;93176.78;2071684;69;20151;-70
2022/07/19 09:38:32;;;;;;;8.65;3.97;;;;;;;31.89;29.62;93169.19;2071559;69;20167;-70
2022/07/19 09:41:10;;;;;;;5.45;4.18;;;;;;;31.60;29.19;93171.69;2068307;69;20623;-69
2022/07/19 09:43:54;;;;;;;5.78;4.35;;;;;;;32.04;29.74;93164.63;2071627;69;20508;-70
2022/07/19 09:46:34;;;;;;;7.95;4.30;;;;;;;32.46;29.07;93171.38;2071641;69;20167;-71
2022/07/19 09:49:15;;;;;;;6.63;3.90;;;;;;;33.31;27.98;93160.56;2071687;69;20311;-70
2022/07/19 09:51:46;;;;;;;8.32;4.20;;;;;;;33.21;27.76;93162.91;2071739;69;20256;-70
2022/07/19 09:54:14;;;;;;;6.38;3.90;;;;;;;33.53;27.74;93158.72;2071636;69;20143;-72
2022/07/19 09:56:43;;;;;;;7.32;3.67;;;;;;;33.98;28.32;93155.66;2071650;69;20151;-72
2022/07/19 09:59:09;;;;;;;6.25;4.00;;;;;;;34.26;27.90;93159.47;2071749;69;20180;-70
2022/07/19 10:01:36;;;;;;;5.28;3.42;;;;;;;34.63;26.92;93151.34;2071582;69;20174;-74
2022/07/19 10:04:09;;;;;;;8.90;3.67;;;;;;;34.58;26.80;93141.22;2071980;69;20155;-77
2022/07/19 10:06:35;;;;;;;5.22;4.20;;;;;;;33.89;26.04;93146.31;2072020;69;20172;-76
2022/07/19 10:09:06;;;;;;;6.30;3.45;;;;;;;34.09;26.05;93135.75;2072128;69;20517;-69
2022/07/19 10:11:33;;;;;;;4.57;3.90;;;;;;;34.33;26.26;93137.41;2072087;69;20270;-70
2022/07/19 10:13:59;;;;;;;5.30;3.70;;;;;;;34.73;26.08;93135.06;2072108;69;20140;-72
2022/07/19 10:16:53;;;;;;;9.27;3.33;;;;;;;35.23;24.16;93126.53;2072129;69;20534;-74
2022/07/19 10:19:42;;;;;;;4.38;3.50;;;;;;;35.20;24.86;93128.81;2072098;69;20140;-70
2022/07/19 10:22:13;;;;;;;6.70;3.35;;;;;;;35.53;24.35;93127.97;2071947;69;20527;-70
2022/07/19 10:24:55;;;;;;;7.20;3.47;;;;;;;35.79;23.96;93115.53;2068788;69;20142;-70
2022/07/19 10:27:24;;;;;;;;;;;;;;;36.77;23.81;93112.63;2072286;69;20144;-70
2022/07/19 10:30:13;;;;;;;3.78;2.92;;;;;;;37.15;23.32;93115.81;2072053;69;20067;-70
2022/07/19 10:32:48;;;;;;;6.25;2.75;;;;;;;37.11;23.53;93102.00;2071935;69;20163;-70
2022/07/19 10:35:31;;;;;;;9.07;2.80;;;;;;;37.79;23.25;93099.66;2072187;69;20210;-70
2022/07/19 10:38:03;;;;;;;7.80;2.85;;;;;;;38.12;21.69;93108.75;2071996;69;20175;-70
2022/07/19 10:40:43;;;;;;;8.20;2.83;;;;;;;37.91;23.11;93099.25;2072018;69;20148;-71
2022/07/19 10:43:17;;;;;;;5.05;2.70;;;;;;;37.41;22.33;93090.75;2072004;69;20717;-70
2022/07/19 10:46:02;;;;;;;5.53;2.80;;;;;;;37.21;22.31;93083.34;2072166;69;20596;-71
2022/07/19 10:48:47;;;;;;;4.65;2.70;;;;;;;38.60;20.93;93087.09;2071967;69;20183;-71
2022/07/19 10:51:31;;;;;;;3.50;2.50;;;;;;;38.75;20.74;93093.13;2072163;69;20140;-78
2022/07/19 10:54:00;;;;;;;4.75;2.40;;;;;;;39.56;20.46;93092.72;2072008;69;20171;-74
2022/07/19 10:56:27;;;;;;;3.88;2.40;;;;;;;40.47;19.70;93075.38;2071967;69;20527;-77
2022/07/19 10:58:59;;;;;;;6.57;2.80;;;;;;;41.07;19.23;93079.19;2071962;69;20140;-67
2022/07/19 11:01:26;;;;;;;;;;;;;;;41.98;18.42;93082.69;2072079;69;20148;-71
2022/07/19 11:04:14;;;;;;;5.20;1.90;;;;;;;41.31;18.07;93065.44;2071979;69;20146;-70
2022/07/19 11:06:39;;;;;;;4.68;2.22;;;;;;;44.20;16.24;93077.44;2071749;69;20178;-69
2022/07/19 11:09:05;;;;;;;3.40;2.15;;;;;;;46.62;14.08;93075.50;2071970;69;20148;-69
2022/07/19 11:11:30;;;;;;;4.10;2.30;;;;;;;47.29;12.88;93073.63;2071952;69;20155;-72
2022/07/19 11:14:00;;;;;;;5.53;1.83;;;;;;;46.73;12.92;93067.25;2071913;69;20167;-71
2022/07/19 11:16:27;;;;;;;3.22;1.70;;;;;;;47.73;11.47;93071.09;2071927;69;20148;-71
2022/07/19 11:19:03;;;;;;;4.78;1.80;;;;;;;48.85;12.39;93062.34;2071203;69;20167;-69
2022/07/19 11:21:32;;;;;;;7.05;2.47;;;;;;;49.12;11.66;93066.88;2067618;69;20242;-71
2022/07/19 11:23:58;;;;;;;6.55;2.03;;;;;;;48.95;11.93;93060.81;2071520;69;20147;-71
2022/07/19 11:26:24;;;;;;;5.80;1.92;;;;;;;49.99;11.67;93058.13;2071862;69;20299;-73
2022/07/19 11:28:50;;;;;;;5.85;1.70;;;;;;;49.51;10.42;93045.75;2068612;69;20189;-71
2022/07/19 11:31:21;;;;;;;5.88;1.60;;;;;;;52.02;9.82;93051.22;2071808;69;20152;-71
2022/07/19 11:33:50;;;;;;;6.03;1.85;;;;;;;53.88;9.69;93048.16;2071656;69;20183;-71